Terminal Aerodrome Forecast
Issued by NWS

Home | Current Version | Previous Version | Graphics & Text | Print | Product List | Glossary On
Versions: 1 2 3 4 5 6 7 8 9 10 11 12 13 14 15 16 17 18 19 20
000
FTUS43 KGRB 241133
TAFMTW
TAF
KMTW 241133Z 2412/2512 VRB03KT 6SM BR OVC050 WS020/27045KT
      TEMPO 2412/2416 4SM -RA BR BKN025
     FM241600 02005KT 5SM -RA OVC026 WS020/26035KT
     FM241800 02006KT 5SM -RA OVC012 WS020/26035KT
     FM242000 03010G18KT 4SM -RA OVC008
     FM250600 04012G19KT 4SM -RA OVC005=

USA.gov is the U.S. government's official web portal to all federal, state and local government web resources and services.